Time;durP1;ratioP1;P1;durP2;ratioP2;P2;SDS_P1;SDS_P2;PMS_P1;PMS_P2;Temp;Humidity;BMP_temperature;BMP_pressure;BME280_temperature;BME280_humidity;BME280_pressure;Samples;Min_cycle;Max_cycle;Signal;HPM_P1;HPM_P2
2022/12/09 00:01:16;;;;;;;22.08;10.82;;;22.30;64.00;;;;;;5068425;28;20449;-67
2022/12/09 00:03:42;;;;;;;21.13;10.82;;;22.40;64.00;;;;;;5067506;28;20048;-67
2022/12/09 00:06:26;;;;;;;19.92;10.15;;;22.30;63.90;;;;;;5061380;28;20528;-67
2022/12/09 00:08:53;;;;;;;19.50;10.23;;;22.30;63.80;;;;;;5064824;28;20024;-68
2022/12/09 00:11:20;;;;;;;26.80;11.75;;;22.40;63.80;;;;;;5069924;28;20043;-67
2022/12/09 00:13:50;;;;;;;20.85;10.63;;;22.40;63.80;;;;;;5072876;28;20036;-68
2022/12/09 00:16:16;;;;;;;19.80;10.65;;;22.50;63.90;;;;;;5071072;28;20032;-68
2022/12/09 00:18:43;;;;;;;21.13;11.55;;;22.40;63.80;;;;;;5072056;28;20036;-67
2022/12/09 00:21:21;;;;;;;19.95;11.13;;;22.40;63.70;;;;;;5062062;28;20123;-68
2022/12/09 00:23:48;;;;;;;24.75;11.52;;;22.50;63.90;;;;;;5052488;28;20041;-68
2022/12/09 00:26:15;;;;;;;26.48;11.85;;;22.50;63.80;;;;;;5064251;28;20537;-68
2022/12/09 00:28:42;;;;;;;26.13;11.90;;;22.60;63.70;;;;;;5072597;28;20042;-67
2022/12/09 00:31:12;;;;;;;24.27;12.50;;;22.50;63.80;;;;;;5070755;28;20044;-68
2022/12/09 00:33:39;;;;;;;25.02;11.80;;;22.60;63.60;;;;;;5069064;28;20028;-68
2022/12/09 00:36:07;;;;;;;24.75;11.73;;;22.60;63.60;;;;;;5069699;28;20035;-67
2022/12/09 00:38:34;;;;;;;24.40;12.10;;;22.60;63.70;;;;;;5068242;28;20119;-67
2022/12/09 00:41:01;;;;;;;26.98;12.95;;;22.40;63.70;;;;;;5043849;28;20035;-66
2022/12/09 00:43:27;;;;;;;24.10;11.93;;;22.50;64.10;;;;;;5056474;28;20055;-68
2022/12/09 00:45:53;;;;;;;25.92;12.55;;;22.40;64.10;;;;;;5033273;28;20497;-67
2022/12/09 00:48:19;;;;;;;26.90;12.30;;;22.50;64.20;;;;;;5036002;28;20040;-68
2022/12/09 00:50:45;;;;;;;29.00;12.57;;;22.60;64.50;;;;;;5050954;28;20029;-68
2022/12/09 00:53:11;;;;;;;22.38;10.80;;;22.50;64.50;;;;;;5071317;28;20041;-68
2022/12/09 00:55:38;;;;;;;22.05;10.95;;;22.40;64.70;;;;;;5065778;28;20037;-67
2022/12/09 00:58:04;;;;;;;19.67;10.52;;;22.40;64.70;;;;;;5062623;28;20067;-68
2022/12/09 01:00:31;;;;;;;23.40;11.88;;;22.40;64.60;;;;;;5050023;28;20056;-68
2022/12/09 01:02:57;;;;;;;23.45;11.70;;;22.30;64.80;;;;;;5069041;28;20162;-67
2022/12/09 01:05:23;;;;;;;21.55;11.23;;;22.30;64.90;;;;;;5070604;28;20024;-67
2022/12/09 01:07:49;;;;;;;19.70;10.27;;;22.40;65.20;;;;;;5054038;28;20024;-68
2022/12/09 01:10:15;;;;;;;22.65;11.43;;;22.30;65.10;;;;;;5065216;28;20048;-68
2022/12/09 01:12:42;;;;;;;20.40;10.18;;;22.30;65.50;;;;;;5090105;28;20038;-68
2022/12/09 01:15:09;;;;;;;19.88;9.75;;;22.20;65.40;;;;;;5091026;28;20032;-68
2022/12/09 01:17:36;;;;;;;18.55;9.95;;;22.30;65.30;;;;;;5077460;28;20039;-65
2022/12/09 01:20:04;;;;;;;18.42;10.65;;;22.30;65.30;;;;;;5088171;28;20159;-68
2022/12/09 01:22:30;;;;;;;17.75;10.05;;;22.20;65.20;;;;;;5089066;28;20040;-68
2022/12/09 01:24:57;;;;;;;17.42;8.93;;;22.30;65.40;;;;;;5090530;28;20036;-65
2022/12/09 01:27:23;;;;;;;16.88;8.98;;;22.40;65.70;;;;;;5075517;28;20028;-67
2022/12/09 01:29:49;;;;;;;19.70;9.82;;;22.20;65.20;;;;;;5089607;28;20503;-67
2022/12/09 01:32:15;;;;;;;16.40;9.18;;;22.40;65.50;;;;;;5074231;28;20024;-67
2022/12/09 01:34:41;;;;;;;16.73;10.20;;;22.40;65.20;;;;;;5071169;28;20036;-68
2022/12/09 01:37:08;;;;;;;19.05;9.65;;;22.50;65.30;;;;;;5087956;28;20032;-68
2022/12/09 01:39:34;;;;;;;13.30;7.75;;;22.50;65.20;;;;;;5089087;28;20055;-68
2022/12/09 01:42:03;;;;;;;16.05;8.57;;;22.50;65.00;;;;;;5083772;28;20036;-67
2022/12/09 01:44:33;;;;;;;14.15;8.88;;;22.60;64.70;;;;;;5069710;28;20461;-65
2022/12/09 01:47:01;;;;;;;14.50;8.15;;;22.60;64.50;;;;;;5085866;28;20476;-68
2022/12/09 01:49:45;;;;;;;16.02;8.48;;;22.60;64.60;;;;;;5090271;28;20427;-67
2022/12/09 01:52:16;;;;;;;10.48;7.75;;;22.60;64.80;;;;;;5077658;28;20020;-68
2022/12/09 01:54:45;;;;;;;15.75;8.90;;;22.70;64.60;;;;;;5088394;28;20838;-67
2022/12/09 01:57:13;;;;;;;11.10;7.72;;;22.60;64.50;;;;;;5075746;28;20120;-68
2022/12/09 01:59:40;;;;;;;16.10;8.65;;;22.90;64.50;;;;;;5069401;28;20041;-67
2022/12/09 02:02:10;;;;;;;11.05;7.05;;;22.90;64.40;;;;;;5078254;28;21603;-66
2022/12/09 02:04:39;;;;;;;14.02;7.68;;;22.80;64.60;;;;;;5091004;28;20477;-68
2022/12/09 02:07:09;;;;;;;10.98;6.97;;;22.80;64.20;;;;;;5075961;28;20043;-67
2022/12/09 02:09:40;;;;;;;11.50;6.88;;;22.80;64.20;;;;;;5068877;28;22539;-68
2022/12/09 02:12:24;;;;;;;12.60;7.55;;;22.80;64.00;;;;;;5034175;28;20032;-67
2022/12/09 02:14:56;;;;;;;12.93;7.90;;;22.90;64.20;;;;;;5032914;28;20059;-68
2022/12/09 02:17:34;;;;;;;10.68;7.18;;;23.00;64.10;;;;;;5047282;28;20075;-67
2022/12/09 02:20:41;;;;;;;11.10;6.82;;;22.90;64.20;;;;;;5049494;28;20040;-68
2022/12/09 02:23:26;;;;;;;12.77;7.13;;;22.90;64.20;;;;;;5031570;28;20116;-67
2022/12/09 02:26:07;;;;;;;12.05;7.65;;;23.10;64.20;;;;;;5036466;28;20041;-68
2022/12/09 02:29:10;;;;;;;12.77;7.57;;;23.00;64.10;;;;;;5050429;28;20041;-68
2022/12/09 02:31:41;;;;;;;12.98;7.10;;;23.10;64.10;;;;;;4943003;29;20158;-67
2022/12/09 02:34:19;;;;;;;11.75;6.70;;;23.10;64.10;;;;;;4951621;28;20079;-67
2022/12/09 02:37:21;;;;;;;14.85;7.72;;;23.10;64.10;;;;;;4967355;28;20047;-68
2022/12/09 02:40:20;;;;;;;13.18;7.70;;;23.00;63.90;;;;;;4952175;28;20073;-68
2022/12/09 02:42:48;;;;;;;10.63;6.80;;;23.00;63.90;;;;;;4933629;29;20142;-67
2022/12/09 02:45:16;;;;;;;13.30;7.53;;;23.10;64.10;;;;;;4948840;29;20523;-68
2022/12/09 02:47:49;;;;;;;12.57;7.70;;;23.00;64.00;;;;;;4948270;29;20118;-67
2022/12/09 02:50:21;;;;;;;11.43;6.80;;;23.00;64.00;;;;;;4949547;29;20074;-68
2022/12/09 02:52:51;;;;;;;11.48;7.75;;;23.00;64.00;;;;;;4948935;29;20133;-67
2022/12/09 02:55:20;;;;;;;13.05;7.97;;;23.10;64.00;;;;;;4932278;29;20075;-68
2022/12/09 02:57:51;;;;;;;12.68;8.35;;;23.00;63.90;;;;;;4949716;29;20122;-68
2022/12/09 03:00:18;;;;;;;15.10;7.82;;;22.90;63.80;;;;;;4932962;29;20503;-67
2022/12/09 03:02:50;;;;;;;14.15;8.60;;;23.00;63.90;;;;;;4932921;29;20049;-68
2022/12/09 03:05:20;;;;;;;16.13;8.85;;;22.90;64.10;;;;;;4949584;29;20043;-66
2022/12/09 03:08:14;;;;;;;12.95;9.00;;;23.00;64.20;;;;;;5002617;28;20504;-66
2022/12/09 03:11:03;;;;;;;14.82;9.07;;;23.00;64.20;;;;;;5033337;28;20049;-67
2022/12/09 03:13:29;;;;;;;16.00;9.40;;;22.90;64.50;;;;;;5027561;28;20042;-68
2022/12/09 03:16:06;;;;;;;17.52;9.55;;;22.80;64.60;;;;;;5011349;28;20222;-68
2022/12/09 03:18:34;;;;;;;15.52;9.52;;;22.90;64.70;;;;;;5029493;28;20103;-67
2022/12/09 03:21:02;;;;;;;18.42;9.68;;;22.80;64.60;;;;;;5074323;28;20095;-68
2022/12/09 03:23:30;;;;;;;19.77;10.05;;;22.80;64.20;;;;;;5087619;28;20024;-68
2022/12/09 03:25:58;;;;;;;16.65;9.40;;;23.00;64.40;;;;;;5089540;28;20469;-68
2022/12/09 03:28:32;;;;;;;15.10;8.07;;;22.80;64.30;;;;;;5093753;28;20538;-68
2022/12/09 03:31:03;;;;;;;18.73;10.02;;;22.80;64.50;;;;;;5091541;28;20028;-67
2022/12/09 03:33:31;;;;;;;20.27;10.88;;;22.80;64.60;;;;;;5074112;28;20039;-68
2022/12/09 03:36:01;;;;;;;18.83;10.52;;;22.80;64.90;;;;;;5075613;28;20027;-66
2022/12/09 03:38:33;;;;;;;23.20;11.10;;;22.70;64.80;;;;;;5074420;28;20378;-67
2022/12/09 03:41:15;;;;;;;24.73;12.63;;;22.70;65.10;;;;;;5086244;28;20036;-67
2022/12/09 03:43:50;;;;;;;21.33;11.77;;;22.70;65.20;;;;;;5087192;28;20060;-68
2022/12/09 03:46:18;;;;;;;26.67;12.75;;;22.70;65.10;;;;;;5092069;28;20040;-67
2022/12/09 03:48:44;;;;;;;26.08;12.13;;;22.70;65.00;;;;;;5092829;28;20032;-66
2022/12/09 03:51:36;;;;;;;24.42;12.07;;;22.70;65.00;;;;;;5086457;28;20031;-67
2022/12/09 03:54:28;;;;;;;22.95;11.75;;;22.70;65.00;;;;;;5089820;28;20088;-67
2022/12/09 03:56:56;;;;;;;20.55;10.93;;;22.70;65.00;;;;;;5092384;28;20453;-68
2022/12/09 03:59:27;;;;;;;23.00;10.43;;;22.80;64.90;;;;;;5093358;28;20531;-67
2022/12/09 04:01:53;;;;;;;25.02;11.98;;;22.80;64.90;;;;;;5091691;28;20377;-68
2022/12/09 04:04:20;;;;;;;23.63;12.35;;;22.80;65.00;;;;;;5070019;28;20052;-67
2022/12/09 04:06:49;;;;;;;23.48;11.75;;;22.90;65.10;;;;;;5086489;28;20396;-65
2022/12/09 04:09:16;;;;;;;25.75;11.90;;;22.80;64.80;;;;;;5076043;28;20044;-63
2022/12/09 04:11:42;;;;;;;26.90;12.10;;;22.80;64.70;;;;;;5071990;28;20035;-65
2022/12/09 04:14:08;;;;;;;23.52;11.50;;;22.80;64.70;;;;;;5072095;28;20117;-66
2022/12/09 04:16:34;;;;;;;24.23;11.90;;;22.90;64.60;;;;;;5070996;28;20531;-66
2022/12/09 04:19:00;;;;;;;21.95;11.60;;;23.00;64.70;;;;;;5067491;28;20036;-67
2022/12/09 04:21:26;;;;;;;29.92;12.35;;;23.00;64.70;;;;;;5061041;28;20056;-66
2022/12/09 04:23:52;;;;;;;22.27;11.52;;;22.90;64.70;;;;;;5051638;28;20119;-67
2022/12/09 04:26:21;;;;;;;23.98;11.35;;;22.80;64.60;;;;;;5059197;28;20127;-66
2022/12/09 04:28:47;;;;;;;22.23;11.05;;;22.80;64.80;;;;;;5071623;28;20469;-65
2022/12/09 04:31:15;;;;;;;22.25;10.48;;;22.80;65.10;;;;;;5071530;28;20040;-66
2022/12/09 04:33:42;;;;;;;26.73;10.98;;;22.80;65.20;;;;;;5030199;28;20116;-66
2022/12/09 04:36:11;;;;;;;21.02;10.63;;;22.80;65.00;;;;;;5058532;28;20033;-67
2022/12/09 04:38:37;;;;;;;23.73;10.75;;;22.80;64.80;;;;;;5070517;28;20115;-66
2022/12/09 04:41:03;;;;;;;21.08;10.75;;;22.80;64.50;;;;;;5066479;28;20036;-66
2022/12/09 04:43:29;;;;;;;29.77;11.88;;;22.90;64.50;;;;;;5071420;28;20124;-67
2022/12/09 04:46:00;;;;;;;24.13;11.10;;;22.90;64.50;;;;;;5071064;28;20413;-67
2022/12/09 04:48:27;;;;;;;26.15;12.25;;;22.80;64.30;;;;;;5071442;28;20036;-67
2022/12/09 04:50:54;;;;;;;25.75;11.90;;;22.90;64.40;;;;;;5057537;28;20040;-67
2022/12/09 04:53:20;;;;;;;24.42;12.00;;;22.90;64.80;;;;;;5068979;28;20054;-66
2022/12/09 04:55:46;;;;;;;24.98;11.43;;;22.80;64.90;;;;;;5070021;28;20035;-67
2022/12/09 04:58:12;;;;;;;28.02;10.88;;;22.80;65.00;;;;;;5071879;28;20036;-66
2022/12/09 05:00:38;;;;;;;33.45;12.23;;;22.70;65.10;;;;;;5070823;28;20043;-65
2022/12/09 05:03:04;;;;;;;22.50;11.63;;;22.70;65.40;;;;;;5058178;28;20045;-66
2022/12/09 05:05:30;;;;;;;21.85;11.07;;;22.60;65.30;;;;;;5065631;28;20060;-67
2022/12/09 05:07:56;;;;;;;29.15;12.77;;;22.50;65.50;;;;;;5059123;28;20122;-65
2022/12/09 05:10:22;;;;;;;25.00;12.55;;;22.70;65.50;;;;;;5057627;28;20063;-66
2022/12/09 05:12:48;;;;;;;24.75;12.30;;;22.60;65.60;;;;;;5070561;28;20471;-67
2022/12/09 05:15:14;;;;;;;31.00;12.50;;;22.50;65.80;;;;;;5070009;28;20029;-65
2022/12/09 05:17:40;;;;;;;26.17;11.38;;;22.50;66.00;;;;;;5067809;28;20462;-67
2022/12/09 05:20:07;;;;;;;27.27;11.98;;;22.40;65.90;;;;;;5060081;28;20112;-67
2022/12/09 05:22:34;;;;;;;24.60;11.18;;;22.50;65.90;;;;;;5054537;28;20049;-67
2022/12/09 05:25:00;;;;;;;30.75;14.15;;;22.40;65.90;;;;;;5055208;28;20170;-66
2022/12/09 05:27:26;;;;;;;28.42;13.23;;;22.50;65.50;;;;;;5070497;28;20115;-64
2022/12/09 05:29:52;;;;;;;27.27;12.30;;;22.50;65.90;;;;;;5070352;28;20138;-66
2022/12/09 05:32:18;;;;;;;26.30;12.80;;;22.40;66.30;;;;;;5069583;28;20139;-66
2022/12/09 05:34:44;;;;;;;27.20;13.00;;;22.40;65.90;;;;;;5069169;28;20406;-66
2022/12/09 05:37:14;;;;;;;29.63;11.88;;;22.50;66.30;;;;;;5069366;28;20116;-66
2022/12/09 05:39:40;;;;;;;29.63;12.75;;;22.50;66.00;;;;;;5056034;28;20024;-66
2022/12/09 05:42:06;;;;;;;25.10;12.60;;;22.50;65.90;;;;;;5055017;28;20032;-66
2022/12/09 05:44:32;;;;;;;25.98;13.02;;;22.60;65.90;;;;;;5030097;28;20041;-66
2022/12/09 05:46:58;;;;;;;29.83;13.32;;;22.50;66.00;;;;;;5065697;28;20032;-66
2022/12/09 05:49:24;;;;;;;29.65;13.45;;;22.40;65.90;;;;;;5065960;28;20029;-67
2022/12/09 05:51:51;;;;;;;26.25;12.88;;;22.50;66.00;;;;;;5051056;28;20128;-66
2022/12/09 05:54:17;;;;;;;28.17;12.13;;;22.50;65.90;;;;;;5065050;28;20035;-66
2022/12/09 05:56:43;;;;;;;26.55;12.35;;;22.50;66.00;;;;;;5052103;28;20021;-67
2022/12/09 05:59:09;;;;;;;31.00;13.77;;;22.50;65.90;;;;;;5050736;28;20037;-64
2022/12/09 06:01:35;;;;;;;27.88;13.82;;;22.50;65.80;;;;;;5053976;28;20355;-65
2022/12/09 06:04:01;;;;;;;24.58;12.45;;;22.40;65.70;;;;;;5052960;28;20144;-67
2022/12/09 06:06:28;;;;;;;26.52;13.10;;;22.50;66.30;;;;;;5050924;28;20385;-66
2022/12/09 06:08:58;;;;;;;29.58;13.48;;;22.40;66.10;;;;;;5033115;28;20052;-67
2022/12/09 06:11:24;;;;;;;27.73;13.80;;;22.40;66.10;;;;;;5077735;28;20055;-66
2022/12/09 06:13:50;;;;;;;24.42;12.27;;;22.30;66.00;;;;;;5082363;28;20424;-65
2022/12/09 06:16:18;;;;;;;26.70;13.65;;;22.50;66.30;;;;;;5057747;28;20033;-66
2022/12/09 06:18:45;;;;;;;34.40;14.63;;;22.30;66.30;;;;;;5088521;28;20077;-66
2022/12/09 06:21:12;;;;;;;35.65;17.27;;;22.30;66.60;;;;;;5075923;28;20473;-67
2022/12/09 06:23:40;;;;;;;33.53;16.83;;;22.20;66.30;;;;;;5047950;28;20040;-64
2022/12/09 06:26:13;;;;;;;34.90;16.60;;;22.20;66.60;;;;;;5078987;28;20029;-66
2022/12/09 06:28:39;;;;;;;31.40;13.68;;;22.20;66.30;;;;;;5074695;28;20036;-67
2022/12/09 06:31:05;;;;;;;31.58;13.25;;;22.20;66.50;;;;;;5075143;28;20459;-67
2022/12/09 06:33:31;;;;;;;27.45;13.55;;;22.20;66.20;;;;;;5070514;28;20534;-67
2022/12/09 06:36:01;;;;;;;25.77;12.75;;;22.20;66.30;;;;;;5073627;28;20036;-66
2022/12/09 06:38:27;;;;;;;32.47;13.27;;;22.10;66.70;;;;;;5090779;28;20382;-67
2022/12/09 06:40:53;;;;;;;29.05;13.38;;;22.20;66.60;;;;;;5082763;28;20032;-67
2022/12/09 06:43:19;;;;;;;27.02;13.27;;;22.10;66.70;;;;;;5080725;28;20037;-66
2022/12/09 06:45:45;;;;;;;25.63;12.70;;;22.10;66.80;;;;;;5070561;28;20039;-68
2022/12/09 06:48:11;;;;;;;30.05;14.23;;;22.10;66.90;;;;;;5082615;28;20024;-68
2022/12/09 06:50:37;;;;;;;29.58;14.40;;;22.10;67.00;;;;;;5078659;28;20366;-72
2022/12/09 06:53:03;;;;;;;30.52;13.73;;;22.20;66.50;;;;;;5070470;28;20044;-70
2022/12/09 06:55:29;;;;;;;31.20;14.45;;;22.10;66.30;;;;;;5080021;28;20028;-71
2022/12/09 06:57:58;;;;;;;33.83;15.23;;;22.10;66.50;;;;;;5080874;28;20032;-71
2022/12/09 07:00:24;;;;;;;26.42;14.48;;;22.10;58.40;;;;;;5074319;28;20032;-71
2022/12/09 07:02:51;;;;;;;26.92;13.20;;;22.30;56.10;;;;;;5083238;28;20472;-70
2022/12/09 07:05:17;;;;;;;24.60;12.10;;;22.60;55.70;;;;;;5077556;28;20478;-70
2022/12/09 07:07:43;;;;;;;23.67;12.85;;;22.80;56.40;;;;;;5077672;28;20032;-71
2022/12/09 07:10:09;;;;;;;22.60;12.05;;;23.00;57.20;;;;;;5085858;28;20062;-72
2022/12/09 07:12:35;;;;;;;19.13;11.52;;;23.20;56.90;;;;;;5073994;28;20469;-71
2022/12/09 07:15:01;;;;;;;19.92;11.80;;;23.20;59.00;;;;;;5073932;28;20043;-72
2022/12/09 07:17:27;;;;;;;23.80;13.30;;;23.40;57.20;;;;;;5073872;28;20033;-71
2022/12/09 07:19:53;;;;;;;22.98;12.27;;;23.40;51.70;;;;;;5073146;28;20361;-72
2022/12/09 07:22:19;;;;;;;22.50;11.57;;;23.40;48.80;;;;;;5072893;28;20028;-71
2022/12/09 07:24:45;;;;;;;21.45;12.20;;;23.30;48.00;;;;;;5073568;28;20056;-70
2022/12/09 07:27:14;;;;;;;23.58;13.00;;;23.30;47.60;;;;;;5070006;28;20035;-70
2022/12/09 07:29:40;;;;;;;18.63;10.82;;;23.30;48.40;;;;;;5029348;28;20048;-70
2022/12/09 07:32:09;;;;;;;19.63;10.68;;;23.20;48.10;;;;;;5021463;28;20047;-68
2022/12/09 07:34:35;;;;;;;22.92;12.63;;;23.30;48.20;;;;;;5073315;28;20060;-69
2022/12/09 07:37:01;;;;;;;27.08;14.65;;;23.30;46.80;;;;;;5030755;28;20045;-71
2022/12/09 07:39:27;;;;;;;24.25;13.00;;;23.40;47.10;;;;;;5023642;28;20530;-70
2022/12/09 07:41:55;;;;;;;25.92;14.40;;;23.50;47.10;;;;;;5031065;28;20050;-69
2022/12/09 07:44:22;;;;;;;23.15;13.15;;;23.50;46.50;;;;;;5029924;28;20048;-68
2022/12/09 07:46:48;;;;;;;27.50;14.73;;;23.40;46.40;;;;;;5029109;28;20064;-69
2022/12/09 07:49:15;;;;;;;27.52;14.40;;;23.60;55.80;;;;;;5014157;28;20088;-68
2022/12/09 07:51:42;;;;;;;23.60;13.50;;;23.50;58.30;;;;;;5010040;28;20048;-70
2022/12/09 07:54:16;;;;;;;26.02;12.52;;;23.40;59.90;;;;;;5011406;28;20033;-66
2022/12/09 07:56:42;;;;;;;27.52;13.93;;;23.30;61.40;;;;;;5023843;28;20136;-66
2022/12/09 07:59:10;;;;;;;24.45;13.48;;;23.20;62.90;;;;;;5029742;28;20033;-67
2022/12/09 08:01:37;;;;;;;24.73;12.60;;;23.20;63.70;;;;;;5018025;28;20030;-67
2022/12/09 08:04:05;;;;;;;23.05;12.07;;;23.10;64.50;;;;;;5010613;28;20046;-69
2022/12/09 08:06:32;;;;;;;22.60;12.18;;;23.00;64.50;;;;;;5030299;28;20045;-68
2022/12/09 08:09:00;;;;;;;21.67;11.75;;;23.20;65.00;;;;;;5066505;28;20120;-68
2022/12/09 08:11:28;;;;;;;20.85;11.23;;;23.00;65.60;;;;;;5072880;28;20052;-67
2022/12/09 08:13:59;;;;;;;19.17;11.27;;;22.90;66.50;;;;;;5072028;28;20415;-67
2022/12/09 08:16:26;;;;;;;24.42;12.30;;;23.00;66.60;;;;;;5072816;28;20119;-68
2022/12/09 08:18:53;;;;;;;25.77;11.98;;;22.90;66.20;;;;;;5072772;28;20040;-67
2022/12/09 08:21:25;;;;;;;21.83;12.75;;;22.80;66.30;;;;;;5072759;28;20051;-67
2022/12/09 08:23:53;;;;;;;23.70;12.00;;;22.80;66.00;;;;;;5072008;28;20040;-68
2022/12/09 08:26:21;;;;;;;23.77;12.10;;;22.80;66.50;;;;;;5072659;28;20047;-69
2022/12/09 08:28:47;;;;;;;20.65;11.52;;;22.80;66.40;;;;;;5019136;28;20048;-68
2022/12/09 08:31:16;;;;;;;23.48;11.88;;;22.80;65.90;;;;;;5052650;28;20474;-68
2022/12/09 08:33:43;;;;;;;23.92;11.68;;;22.90;65.80;;;;;;5054111;28;20059;-71
2022/12/09 08:36:15;;;;;;;18.25;11.18;;;22.80;65.90;;;;;;5062552;28;20032;-67
2022/12/09 08:38:41;;;;;;;16.88;9.90;;;22.80;65.70;;;;;;5055982;28;20055;-69
2022/12/09 08:41:09;;;;;;;23.90;14.10;;;22.80;65.40;;;;;;5052047;28;20052;-72
2022/12/09 08:43:35;;;;;;;27.80;13.10;;;23.00;52.80;;;;;;5051947;28;20033;-72
2022/12/09 08:46:01;;;;;;;20.92;11.18;;;23.20;51.80;;;;;;5051884;28;20378;-73
2022/12/09 08:48:27;;;;;;;21.42;11.35;;;23.20;51.00;;;;;;5055822;28;20028;-72
2022/12/09 08:50:53;;;;;;;23.25;10.68;;;23.30;50.50;;;;;;5069561;28;20064;-71
2022/12/09 08:53:19;;;;;;;19.25;11.70;;;23.20;50.60;;;;;;5033460;28;20034;-72
2022/12/09 08:55:45;;;;;;;19.20;10.75;;;23.40;51.70;;;;;;5071955;28;20054;-69
2022/12/09 08:58:11;;;;;;;19.73;11.20;;;23.50;55.30;;;;;;5071894;28;20469;-70
2022/12/09 09:00:37;;;;;;;21.73;11.88;;;23.60;59.00;;;;;;5061974;28;20039;-70
2022/12/09 09:03:03;;;;;;;17.27;9.77;;;23.60;59.90;;;;;;5071165;28;20025;-69
2022/12/09 09:05:29;;;;;;;21.88;9.55;;;23.70;60.60;;;;;;5061106;28;20043;-70
2022/12/09 09:07:55;;;;;;;18.30;10.70;;;23.70;61.50;;;;;;5052110;28;20203;-69
2022/12/09 09:10:21;;;;;;;17.98;9.88;;;23.50;62.10;;;;;;5058739;28;20059;-69
2022/12/09 09:12:47;;;;;;;16.63;10.57;;;23.70;62.70;;;;;;5051894;28;20060;-70
2022/12/09 09:15:13;;;;;;;18.70;10.98;;;23.60;62.50;;;;;;5048760;28;20071;-69
2022/12/09 09:17:39;;;;;;;15.75;11.85;;;23.50;62.40;;;;;;5055020;28;20064;-69
2022/12/09 09:20:05;;;;;;;17.38;11.20;;;23.50;62.40;;;;;;5065319;28;20037;-69
2022/12/09 09:22:32;;;;;;;20.23;11.88;;;23.60;62.40;;;;;;4996006;28;20051;-69
2022/12/09 09:24:58;;;;;;;16.83;11.10;;;23.40;62.50;;;;;;5056543;28;20595;-69
2022/12/09 09:27:24;;;;;;;18.73;11.02;;;23.50;62.80;;;;;;5062685;28;21127;-69
2022/12/09 09:29:50;;;;;;;17.30;10.30;;;23.40;62.60;;;;;;5070800;28;20036;-69
2022/12/09 09:32:16;;;;;;;15.88;10.07;;;23.40;62.60;;;;;;5062078;28;20035;-69
2022/12/09 09:34:44;;;;;;;16.52;9.68;;;23.40;62.80;;;;;;5062835;28;20021;-69
2022/12/09 09:37:10;;;;;;;15.95;10.73;;;23.30;63.00;;;;;;5047164;28;20028;-68
2022/12/09 09:39:36;;;;;;;15.23;9.30;;;23.30;63.10;;;;;;5066522;28;20061;-69
2022/12/09 09:42:04;;;;;;;14.60;9.20;;;23.20;63.10;;;;;;5058919;28;20179;-69
2022/12/09 09:44:37;;;;;;;13.88;9.63;;;23.00;63.10;;;;;;5054902;28;20048;-69
2022/12/09 09:47:26;;;;;;;14.15;9.93;;;23.10;63.30;;;;;;5069538;28;20035;-69
2022/12/09 09:50:27;;;;;;;17.83;9.65;;;23.00;63.40;;;;;;4992965;28;20072;-68
2022/12/09 09:52:54;;;;;;;12.80;9.10;;;23.10;63.50;;;;;;4999959;28;20137;-67
2022/12/09 09:55:38;;;;;;;13.57;9.10;;;23.10;63.50;;;;;;4992432;28;20057;-66
2022/12/09 09:58:35;;;;;;;11.80;7.97;;;23.10;63.60;;;;;;4989390;28;20038;-65
2022/12/09 10:01:12;;;;;;;11.13;7.35;;;23.00;63.70;;;;;;4989094;28;20133;-66
2022/12/09 10:03:47;;;;;;;10.52;7.00;;;22.90;63.60;;;;;;4988129;28;20081;-68
2022/12/09 10:06:37;;;;;;;10.60;7.45;;;23.10;63.40;;;;;;4987674;28;20116;-68
2022/12/09 10:09:27;;;;;;;8.77;5.90;;;23.00;63.40;;;;;;4987947;28;20034;-66
2022/12/09 10:12:02;;;;;;;8.25;6.28;;;23.00;62.90;;;;;;5008445;28;20074;-68
2022/12/09 10:14:34;;;;;;;7.35;6.35;;;23.00;62.90;;;;;;5008196;28;20054;-68
2022/12/09 10:17:14;;;;;;;9.05;5.80;;;23.10;63.00;;;;;;4991866;28;20058;-67
2022/12/09 10:19:53;;;;;;;12.73;7.22;;;23.00;63.10;;;;;;5008215;28;20038;-67
2022/12/09 10:22:22;;;;;;;9.02;5.88;;;23.00;62.70;;;;;;5008486;28;20256;-68
2022/12/09 10:24:57;;;;;;;9.25;6.20;;;22.90;62.80;;;;;;5006320;28;20912;-68
2022/12/09 10:27:43;;;;;;;8.43;5.82;;;22.90;62.90;;;;;;5008125;28;20053;-67
2022/12/09 10:30:12;;;;;;;8.55;5.65;;;22.80;62.80;;;;;;4982441;28;20086;-67
2022/12/09 10:32:39;;;;;;;9.27;5.50;;;22.90;62.80;;;;;;4970712;28;20550;-68
2022/12/09 10:35:13;;;;;;;10.27;6.72;;;23.00;62.70;;;;;;4973464;28;20042;-67
2022/12/09 10:37:39;;;;;;;8.10;5.97;;;23.00;62.40;;;;;;4981912;28;20034;-68
2022/12/09 10:40:08;;;;;;;9.75;7.13;;;23.00;62.40;;;;;;5011475;28;20496;-67
2022/12/09 10:45:30;;;;;;;8.32;5.90;;;23.00;61.60;;;;;;5011992;28;20110;-68
2022/12/09 10:47:56;;;;;;;8.55;7.05;;;23.10;61.70;;;;;;5012143;28;20042;-67
2022/12/09 10:50:33;;;;;;;9.63;6.40;;;23.20;61.90;;;;;;5012043;28;20662;-67
2022/12/09 10:53:12;;;;;;;9.48;6.30;;;23.10;61.70;;;;;;5012059;28;20046;-68
2022/12/09 10:55:42;;;;;;;8.57;5.88;;;23.10;61.70;;;;;;5011121;28;21875;-68
2022/12/09 10:58:13;;;;;;;9.23;6.35;;;23.20;61.70;;;;;;5011917;28;20038;-68
2022/12/09 11:00:39;;;;;;;8.50;6.30;;;23.20;61.70;;;;;;5012008;28;20081;-68
2022/12/09 11:03:26;;;;;;;9.18;4.88;;;23.20;61.50;;;;;;5011751;28;20384;-67
2022/12/09 11:05:58;;;;;;;7.95;5.75;;;23.30;61.50;;;;;;5011522;28;20041;-68
2022/12/09 11:08:24;;;;;;;5.78;4.75;;;23.40;60.80;;;;;;5070257;28;20396;-67
2022/12/09 11:10:51;;;;;;;8.13;6.68;;;23.50;60.90;;;;;;5073227;28;20036;-68
2022/12/09 11:13:18;;;;;;;10.30;6.03;;;23.40;60.70;;;;;;5072877;28;20389;-68
2022/12/09 11:15:50;;;;;;;8.30;5.78;;;23.40;60.60;;;;;;5073733;28;20032;-68
2022/12/09 11:18:23;;;;;;;7.68;5.53;;;23.50;60.80;;;;;;5069230;28;20060;-68
2022/12/09 11:21:02;;;;;;;6.75;5.13;;;23.50;61.00;;;;;;5069098;28;20037;-67
2022/12/09 11:23:28;;;;;;;9.60;5.60;;;23.50;60.70;;;;;;5071825;28;20032;-68
2022/12/09 11:26:18;;;;;;;7.43;5.43;;;23.70;60.50;;;;;;5052366;28;20049;-69
2022/12/09 11:28:44;;;;;;;3.05;1.75;;;23.70;61.50;;;;;;5065193;28;20531;-66
2022/12/09 11:31:17;;;;;;;1.42;1.13;;;23.80;61.40;;;;;;5073931;28;20090;-66
2022/12/09 11:33:53;;;;;;;2.25;1.65;;;23.90;61.40;;;;;;5073771;28;20078;-66
2022/12/09 11:36:30;;;;;;;1.55;1.13;;;24.00;61.20;;;;;;5058649;28;20068;-69
2022/12/09 11:39:34;;;;;;;1.52;1.42;;;24.10;60.70;;;;;;5071828;28;20506;-68
2022/12/09 11:42:17;;;;;;;1.55;1.30;;;24.10;60.80;;;;;;5073548;28;20032;-68
2022/12/09 11:45:16;;;;;;;0.88;0.88;;;24.30;58.80;;;;;;5036832;28;20106;-68
2022/12/09 11:47:45;;;;;;;1.30;1.27;;;24.50;57.00;;;;;;5067549;28;20481;-68
2022/12/09 11:50:17;;;;;;;1.45;1.27;;;24.80;53.70;;;;;;5070147;28;20044;-68
2022/12/09 11:52:43;;;;;;;0.75;0.75;;;25.00;51.70;;;;;;5073041;28;20167;-66
2022/12/09 11:55:10;;;;;;;2.75;1.80;;;25.30;50.70;;;;;;5035502;28;20105;-67
2022/12/09 11:57:49;;;;;;;6.63;2.00;;;25.40;49.70;;;;;;5072759;28;20063;-67
2022/12/09 12:00:23;;;;;;;8.25;2.40;;;25.70;52.00;;;;;;5073212;28;20017;-67
2022/12/09 12:03:02;;;;;;;4.40;2.47;;;26.40;52.80;;;;;;5071963;28;20032;-68
2022/12/09 12:05:42;;;;;;;1.15;1.13;;;26.90;54.70;;;;;;5055596;28;20120;-67
2022/12/09 12:08:36;;;;;;;3.10;1.98;;;27.30;54.20;;;;;;5053737;28;20496;-70
2022/12/09 12:11:09;;;;;;;1.60;0.95;;;27.10;46.10;;;;;;4980240;28;20051;-70
2022/12/09 12:13:35;;;;;;;;;;;26.70;45.60;;;;;;4979161;28;20108;-71
2022/12/09 12:16:10;;;;;;;1.77;1.55;;;26.40;46.10;;;;;;4990993;28;20411;-68
2022/12/09 12:18:45;;;;;;;1.35;1.25;;;26.30;46.70;;;;;;4991349;28;20080;-69
2022/12/09 12:21:13;;;;;;;7.18;2.25;;;26.20;46.80;;;;;;4990944;28;20054;-68
2022/12/09 12:24:16;;;;;;;2.78;2.35;;;26.00;47.20;;;;;;4989657;28;20113;-69
2022/12/09 12:27:03;;;;;;;2.20;1.53;;;26.00;46.40;;;;;;4990184;28;20043;-68
2022/12/09 12:29:52;;;;;;;9.13;4.00;;;26.00;47.30;;;;;;4971161;28;20125;-70
2022/12/09 12:32:29;;;;;;;5.63;3.08;;;25.80;47.10;;;;;;4971596;28;20031;-68
2022/12/09 12:35:31;;;;;;;3.60;1.90;;;25.70;47.30;;;;;;4986777;28;20061;-67
2022/12/09 12:38:08;;;;;;;3.13;2.30;;;25.70;47.00;;;;;;4990499;28;20038;-69
2022/12/09 12:40:46;;;;;;;6.63;3.03;;;25.70;46.50;;;;;;4989651;28;20046;-69
2022/12/09 12:46:48;;;;;;;5.75;3.28;;;25.60;45.80;;;;;;4963256;28;20057;-69
2022/12/09 12:49:27;;;;;;;5.90;3.45;;;25.70;45.30;;;;;;5054412;28;20064;-68
2022/12/09 12:52:18;;;;;;;7.07;2.55;;;25.70;45.70;;;;;;5071862;28;20020;-68
2022/12/09 12:54:56;;;;;;;8.63;6.43;;;25.50;45.50;;;;;;5070460;28;20389;-69
2022/12/09 12:57:33;;;;;;;7.93;6.03;;;25.50;45.30;;;;;;5064316;28;20124;-68